createdAt,value
2019-04-01T00:01:54.178Z,1.34
2019-04-01T00:04:23.294Z,1.54
2019-04-01T00:06:52.797Z,1.46
2019-04-01T00:09:21.812Z,1.29
2019-04-01T00:11:50.933Z,1.23
2019-04-01T00:14:20.022Z,1.15
2019-04-01T00:16:49.106Z,1.18
2019-04-01T00:19:18.282Z,1.06
2019-04-01T00:21:47.678Z,1.09
2019-04-01T00:24:16.894Z,1.17
2019-04-01T00:26:46.015Z,1.08
2019-04-01T00:29:15.142Z,0.99
2019-04-01T00:31:44.227Z,0.71
2019-04-01T00:34:13.290Z,0.77
2019-04-01T00:36:42.405Z,0.72
2019-04-01T00:39:11.567Z,0.83
2019-04-01T00:41:49.821Z,0.83
2019-04-01T00:44:18.939Z,0.76
2019-04-01T00:46:48.065Z,0.59
2019-04-01T00:49:17.224Z,0.35
2019-04-01T00:51:46.429Z,0.54
2019-04-01T00:54:15.558Z,0.79
2019-04-01T00:56:44.763Z,0.57
2019-04-01T00:59:13.882Z,0.56
2019-04-01T01:01:43.343Z,0.54
2019-04-01T01:04:12.457Z,0.30
2019-04-01T01:06:41.891Z,0.34
2019-04-01T01:09:10.989Z,0.60
2019-04-01T01:11:40.139Z,0.55
2019-04-01T01:14:09.271Z,0.54
2019-04-01T01:16:38.443Z,0.58
2019-04-01T01:19:07.594Z,0.48
2019-04-01T01:21:37.831Z,0.57
2019-04-01T01:24:06.952Z,0.55
2019-04-01T01:26:36.075Z,0.31
2019-04-01T01:29:05.250Z,0.09
2019-04-01T01:31:34.370Z,-0.05
2019-04-01T01:34:03.481Z,0.09
2019-04-01T01:36:32.591Z,0.03
2019-04-01T01:39:01.748Z,-0.04
2019-04-01T01:41:30.756Z,-0.09
2019-04-01T01:43:59.963Z,0.06
2019-04-01T01:46:29.050Z,0.01
2019-04-01T01:48:58.108Z,0.19
2019-04-01T01:51:27.205Z,0.02
2019-04-01T01:53:56.338Z,-0.14
2019-04-01T01:56:25.460Z,-0.20
2019-04-01T01:58:54.573Z,-0.26
2019-04-01T02:01:23.698Z,-0.11
2019-04-01T02:03:52.704Z,-0.13
2019-04-01T02:06:21.860Z,-0.07
2019-04-01T02:08:50.953Z,-0.10
2019-04-01T02:11:20.103Z,-0.27
2019-04-01T02:13:49.177Z,-0.35
2019-04-01T02:16:18.248Z,-0.41
2019-04-01T02:18:47.372Z,-0.29
2019-04-01T02:21:16.869Z,-0.38
2019-04-01T02:23:46.009Z,-0.32
2019-04-01T02:26:15.130Z,-0.39
2019-04-01T02:28:44.279Z,-0.49
2019-04-01T02:31:13.687Z,-0.26
2019-04-01T02:33:42.638Z,-0.32
2019-04-01T02:36:11.843Z,-0.38
2019-04-01T02:38:41.223Z,-0.32
2019-04-01T02:41:10.850Z,-0.43
2019-04-01T02:43:39.933Z,-0.51
2019-04-01T02:46:09.103Z,-0.33
2019-04-01T02:48:38.289Z,-0.35
2019-04-01T02:51:07.443Z,-0.33
2019-04-01T02:53:36.601Z,-0.56
2019-04-01T02:56:05.801Z,-0.52
2019-04-01T02:58:34.918Z,-0.60
2019-04-01T03:01:04.060Z,-0.58
2019-04-01T03:03:33.250Z,-0.69
2019-04-01T03:06:06.415Z,-0.63
2019-04-01T03:08:35.554Z,-0.67
2019-04-01T03:11:09.833Z,-0.88
2019-04-01T03:13:36.228Z,-0.90
2019-04-01T03:16:05.328Z,-0.95
2019-04-01T03:18:34.455Z,-0.94
2019-04-01T03:21:03.565Z,-0.88
2019-04-01T03:23:32.597Z,-0.77
2019-04-01T03:26:01.725Z,-0.80
2019-04-01T03:28:30.725Z,-0.68
2019-04-01T03:31:00.195Z,-0.71
2019-04-01T03:33:29.501Z,-0.90
2019-04-01T03:35:58.638Z,-0.95
2019-04-01T03:38:28.268Z,-0.85
2019-04-01T03:40:57.540Z,-0.91
2019-04-01T03:43:26.659Z,-0.72
2019-04-01T03:45:55.831Z,-0.77
2019-04-01T03:48:25.029Z,-0.77
2019-04-01T03:50:54.166Z,-0.78
2019-04-01T03:53:23.326Z,-0.76
2019-04-01T03:55:52.619Z,-0.85
2019-04-01T03:58:21.700Z,-1.06
2019-04-01T04:00:50.852Z,-1.19
2019-04-01T04:03:19.869Z,-1.25
2019-04-01T04:05:48.957Z,-1.12
2019-04-01T04:08:18.041Z,-1.08
2019-04-01T04:10:47.250Z,-0.95
2019-04-01T04:13:16.358Z,-0.77
2019-04-01T04:15:45.432Z,-0.84
2019-04-01T04:18:14.580Z,-0.82
2019-04-01T04:20:43.676Z,-0.82
2019-04-01T04:23:12.834Z,-0.83
2019-04-01T04:25:41.868Z,-0.87
2019-04-01T04:28:11.389Z,-0.65
2019-04-01T04:30:40.599Z,-0.68
2019-04-01T04:33:09.873Z,-0.54
2019-04-01T04:35:38.978Z,-0.56
2019-04-01T04:38:08.284Z,-0.62
2019-04-01T04:40:40.670Z,-0.62
2019-04-01T04:43:08.253Z,-0.59
2019-04-01T04:45:37.698Z,-0.24
2019-04-01T04:48:06.839Z,-0.36
2019-04-01T04:50:36.017Z,-0.44
2019-04-01T04:53:05.352Z,-0.36
2019-04-01T04:55:35.426Z,-0.31
2019-04-01T04:58:04.703Z,-0.35
2019-04-01T05:00:33.907Z,-0.49
2019-04-01T05:03:03.116Z,-0.50
2019-04-01T05:05:32.295Z,-0.49
2019-04-01T05:08:01.434Z,-0.44
2019-04-01T05:10:30.549Z,-0.50
2019-04-01T05:12:59.687Z,-0.40
2019-04-01T05:15:28.909Z,-0.32
2019-04-01T05:17:59.123Z,-0.40
2019-04-01T05:20:30.427Z,-0.53
2019-04-01T05:23:03.242Z,-0.42
2019-04-01T05:25:33.923Z,-0.15
2019-04-01T05:28:05.284Z,-0.16
2019-04-01T05:30:37.407Z,0.12
2019-04-01T05:33:06.491Z,0.34
2019-04-01T05:35:36.823Z,0.59
2019-04-01T05:38:06.968Z,0.64
2019-04-01T05:40:38.482Z,0.75
2019-04-01T05:43:07.639Z,0.91
2019-04-01T05:45:36.892Z,0.82
2019-04-01T05:48:06.024Z,0.94
2019-04-01T05:50:35.134Z,1.16
2019-04-01T05:53:04.499Z,1.19
2019-04-01T05:55:34.219Z,1.30
2019-04-01T05:58:03.386Z,1.31
2019-04-01T06:00:39.912Z,1.48
2019-04-01T06:03:09.057Z,1.45
2019-04-01T06:05:38.520Z,1.47
2019-04-01T06:08:07.639Z,1.64
2019-04-01T06:10:37.024Z,1.61
2019-04-01T06:13:06.196Z,1.60
2019-04-01T06:15:35.409Z,1.66
2019-04-01T06:18:04.819Z,1.81
2019-04-01T06:20:33.917Z,1.96
2019-04-01T06:23:03.039Z,1.98
2019-04-01T06:25:32.139Z,1.98
2019-04-01T06:28:01.350Z,2.08
2019-04-01T06:30:30.733Z,2.08
2019-04-01T06:32:59.847Z,2.10
2019-04-01T06:35:28.992Z,2.20
2019-04-01T06:37:58.365Z,2.31
2019-04-01T06:40:27.508Z,2.30
2019-04-01T06:42:56.677Z,2.41
2019-04-01T06:45:27.572Z,2.52
2019-04-01T06:47:56.912Z,2.53
2019-04-01T06:50:26.439Z,2.75
2019-04-01T06:52:56.182Z,2.80
2019-04-01T06:55:25.517Z,2.74
2019-04-01T06:57:54.822Z,2.87
2019-04-01T07:00:24.012Z,2.86
2019-04-01T07:02:53.129Z,2.98
2019-04-01T07:05:22.281Z,3.07
2019-04-01T07:07:51.458Z,3.17
2019-04-01T07:10:20.919Z,3.14
2019-04-01T07:12:50.134Z,3.43
2019-04-01T07:15:19.293Z,3.53
2019-04-01T07:17:48.489Z,3.50
2019-04-01T07:20:17.671Z,3.44
2019-04-01T07:22:46.887Z,3.56
2019-04-01T07:25:15.968Z,3.50
2019-04-01T07:27:45.077Z,3.55
2019-04-01T07:30:15.170Z,3.67
2019-04-01T07:32:44.273Z,3.72
2019-04-01T07:35:13.655Z,3.84
2019-04-01T07:37:42.904Z,4.02
2019-04-01T07:40:13.912Z,3.96
2019-04-01T07:42:43.228Z,4.06
2019-04-01T07:45:12.325Z,4.15
2019-04-01T07:47:41.428Z,4.03
2019-04-01T07:50:12.480Z,4.17
2019-04-01T07:52:41.866Z,4.15
2019-04-01T07:55:11.170Z,4.26
2019-04-01T07:57:40.296Z,4.44
2019-04-01T08:00:09.786Z,4.53
2019-04-01T08:02:39.185Z,4.61
2019-04-01T08:05:08.588Z,4.67
2019-04-01T08:07:37.797Z,4.69
2019-04-01T08:10:07.691Z,4.80
2019-04-01T08:12:36.810Z,4.90
2019-04-01T08:15:06.496Z,4.80
2019-04-01T08:17:35.661Z,4.90
2019-04-01T08:20:05.281Z,4.96
2019-04-01T08:22:34.584Z,4.98
2019-04-01T08:25:04.104Z,5.14
2019-04-01T08:27:33.233Z,5.05
2019-04-01T08:30:02.416Z,5.24
2019-04-01T08:32:31.545Z,5.19
2019-04-01T08:35:00.635Z,5.33
2019-04-01T08:37:29.763Z,5.33
2019-04-01T08:39:58.967Z,5.57
2019-04-01T08:42:28.078Z,5.52
2019-04-01T08:44:57.162Z,5.42
2019-04-01T08:47:26.288Z,5.62
2019-04-01T08:49:55.374Z,5.86
2019-04-01T08:52:24.702Z,5.84
2019-04-01T08:54:54.590Z,5.98
2019-04-01T08:57:23.716Z,5.93
2019-04-01T09:00:12.080Z,6.23
2019-04-01T09:02:41.212Z,6.33
2019-04-01T09:05:10.576Z,6.39
2019-04-01T09:07:39.628Z,6.33
2019-04-01T09:10:08.837Z,6.40
2019-04-01T09:12:38.089Z,6.27
2019-04-01T09:15:07.516Z,6.36
2019-04-01T09:17:40.050Z,6.29
2019-04-01T09:20:07.934Z,6.36
2019-04-01T09:22:37.027Z,6.34
2019-04-01T09:25:06.459Z,6.59
2019-04-01T09:27:36.967Z,6.74
2019-04-01T09:30:07.701Z,6.80
2019-04-01T09:32:36.829Z,6.88
2019-04-01T09:35:06.913Z,7.00
2019-04-01T09:37:36.031Z,7.19
2019-04-01T09:40:07.150Z,7.11
2019-04-01T09:42:36.304Z,7.32
2019-04-01T09:45:06.896Z,7.40
2019-04-01T09:47:36.009Z,7.26
2019-04-01T09:50:05.540Z,7.24
2019-04-01T09:52:34.646Z,7.47
2019-04-01T09:55:06.177Z,7.58
2019-04-01T09:57:34.610Z,7.63
2019-04-01T10:00:03.965Z,7.63
2019-04-01T10:02:33.079Z,7.74
2019-04-01T10:05:02.159Z,7.83
2019-04-01T10:07:31.630Z,7.84
2019-04-01T10:10:00.723Z,7.93
2019-04-01T10:12:29.810Z,7.80
2019-04-01T10:14:58.988Z,8.00
2019-04-01T10:17:28.091Z,8.08
2019-04-01T10:20:00.633Z,8.35
2019-04-01T10:22:27.944Z,8.35
2019-04-01T10:24:57.071Z,8.46
2019-04-01T10:27:26.162Z,8.51
2019-04-01T10:29:55.681Z,8.51
2019-04-01T10:32:24.761Z,8.51
2019-04-01T10:34:53.870Z,8.42
2019-04-01T10:37:22.959Z,8.44
2019-04-01T10:39:52.065Z,8.41
2019-04-01T10:42:21.162Z,8.65
2019-04-01T10:44:50.308Z,8.65
2019-04-01T10:47:19.483Z,8.65
2019-04-01T10:49:48.605Z,8.81
2019-04-01T10:52:17.763Z,8.84
2019-04-01T10:54:47.284Z,8.86
2019-04-01T10:57:16.341Z,8.98
2019-04-01T10:59:45.592Z,9.17
2019-04-01T11:02:18.310Z,8.90
2019-04-01T11:04:45.834Z,8.81
2019-04-01T11:07:14.983Z,9.02
2019-04-01T11:09:44.462Z,9.27
2019-04-01T11:12:13.564Z,9.39
2019-04-01T11:14:42.744Z,9.21
2019-04-01T11:17:11.854Z,9.21
2019-04-01T11:19:40.878Z,9.18
2019-04-01T11:22:09.969Z,9.25
2019-04-01T11:24:39.004Z,9.50
2019-04-01T11:27:08.170Z,9.28
2019-04-01T11:29:37.278Z,9.43
2019-04-01T11:32:07.527Z,9.39
2019-04-01T11:34:36.886Z,9.48
2019-04-01T11:37:06.026Z,9.55
2019-04-01T11:39:36.172Z,9.64
2019-04-01T11:42:05.583Z,9.72
2019-04-01T11:44:34.721Z,9.83
2019-04-01T11:47:03.877Z,9.75
2019-04-01T11:49:32.975Z,10.00
2019-04-01T11:52:02.132Z,9.82
2019-04-01T11:54:31.574Z,9.46
2019-04-01T11:57:00.716Z,9.62
2019-04-01T11:59:29.846Z,9.87
2019-04-01T12:01:58.943Z,9.90
2019-04-01T12:04:28.083Z,10.09
2019-04-01T12:06:57.187Z,10.27
2019-04-01T12:09:27.829Z,10.27
2019-04-01T12:11:57.014Z,10.24
2019-04-01T12:14:26.693Z,10.11
2019-04-01T12:16:55.780Z,10.08
2019-04-01T12:19:24.897Z,10.23
2019-04-01T12:21:54.026Z,10.14
2019-04-01T12:24:23.135Z,10.13
2019-04-01T12:26:52.211Z,10.38
2019-04-01T12:29:21.389Z,9.97
2019-04-01T12:31:51.626Z,9.95
2019-04-01T12:34:20.992Z,10.04
2019-04-01T12:36:50.109Z,10.11
2019-04-01T12:39:19.226Z,10.11
2019-04-01T12:41:48.342Z,9.96
2019-04-01T12:44:17.825Z,10.02
2019-04-01T12:46:47.032Z,10.02
2019-04-01T12:49:16.068Z,10.17
2019-04-01T12:51:45.169Z,10.32
2019-04-01T12:54:15.289Z,10.43
2019-04-01T12:56:44.519Z,10.58
2019-04-01T12:59:13.606Z,10.26
2019-04-01T13:01:42.715Z,10.28
2019-04-01T13:04:11.810Z,10.53
2019-04-01T13:06:40.929Z,10.60
2019-04-01T13:09:10.021Z,10.47
2019-04-01T13:11:39.166Z,10.47
2019-04-01T13:14:08.349Z,10.63
2019-04-01T13:16:37.438Z,10.67
2019-04-01T13:19:06.639Z,10.47
2019-04-01T13:21:35.917Z,10.43
2019-04-01T13:24:05.396Z,10.33
2019-04-01T13:26:34.564Z,10.56
2019-04-01T13:29:03.661Z,10.54
2019-04-01T13:31:33.027Z,10.61
2019-04-01T13:34:02.338Z,10.64
2019-04-01T13:36:31.620Z,10.68
2019-04-01T13:39:03.946Z,10.63
2019-04-01T13:41:42.264Z,10.56
2019-04-01T13:44:02.627Z,10.74
2019-04-01T13:46:31.770Z,10.76
2019-04-01T13:49:04.147Z,10.40
2019-04-01T13:51:31.825Z,10.66
2019-04-01T13:54:08.669Z,10.86
2019-04-01T13:56:32.099Z,10.63
2019-04-01T13:59:01.291Z,10.57
2019-04-01T14:01:30.629Z,10.80
2019-04-01T14:03:59.712Z,10.66
2019-04-01T14:06:28.884Z,10.50
2019-04-01T14:09:00.417Z,10.62
2019-04-01T14:11:29.206Z,10.61
2019-04-01T14:13:58.410Z,10.68
2019-04-01T14:16:27.767Z,10.54
2019-04-01T14:18:56.875Z,10.59
2019-04-01T14:21:26.122Z,10.65
2019-04-01T14:23:55.299Z,10.74
2019-04-01T14:26:24.508Z,10.76
2019-04-01T14:28:53.605Z,10.82
2019-04-01T14:31:23.699Z,10.54
2019-04-01T14:33:52.865Z,10.59
2019-04-01T14:36:21.976Z,10.65
2019-04-01T14:38:51.197Z,10.62
2019-04-01T14:41:20.394Z,10.44
2019-04-01T14:43:49.574Z,10.62
2019-04-01T14:46:18.796Z,10.83
2019-04-01T14:48:47.954Z,10.63
2019-04-01T14:51:17.186Z,10.34
2019-04-01T14:53:47.382Z,10.62
2019-04-01T14:56:16.567Z,10.59
2019-04-01T14:58:45.669Z,10.46
2019-04-01T15:01:14.798Z,10.53
2019-04-01T15:03:44.566Z,10.36
2019-04-01T15:06:13.789Z,10.20
2019-04-01T15:08:42.967Z,10.20
2019-04-01T15:11:12.382Z,10.32
2019-04-01T15:13:41.903Z,10.20
2019-04-01T15:16:11.160Z,10.12
2019-04-01T15:18:41.523Z,10.17
2019-04-01T15:21:11.846Z,10.43
2019-04-01T15:23:41.057Z,10.20
2019-04-01T15:26:10.212Z,10.38
2019-04-01T15:28:39.364Z,10.40
2019-04-01T15:31:08.478Z,10.32
2019-04-01T15:33:37.556Z,10.26
2019-04-01T15:36:06.803Z,10.16
2019-04-01T15:38:35.924Z,10.18
2019-04-01T15:41:05.028Z,10.30
2019-04-01T15:43:34.131Z,10.36
2019-04-01T15:46:04.161Z,10.25
2019-04-01T15:48:33.640Z,10.19
2019-04-01T15:51:02.725Z,10.11
2019-04-01T15:53:31.875Z,10.15
2019-04-01T15:56:01.063Z,10.01
2019-04-01T15:58:30.198Z,10.00
2019-04-01T16:01:00.280Z,9.98
2019-04-01T16:03:30.129Z,9.89
2019-04-01T16:05:59.510Z,10.08
2019-04-01T16:08:28.461Z,9.84
2019-04-01T16:10:57.557Z,9.81
2019-04-01T16:13:26.662Z,9.85
2019-04-01T16:15:55.675Z,9.81
2019-04-01T16:18:24.783Z,9.78
2019-04-01T16:20:55.144Z,9.75
2019-04-01T16:23:24.693Z,9.64
2019-04-01T16:25:53.836Z,9.54
2019-04-01T16:28:22.947Z,9.66
2019-04-01T16:30:52.088Z,9.70
2019-04-01T16:33:21.339Z,9.70
2019-04-01T16:35:50.449Z,9.54
2019-04-01T16:38:19.605Z,9.47
2019-04-01T16:40:48.705Z,9.59
2019-04-01T16:43:17.927Z,9.39
2019-04-01T16:45:46.995Z,9.47
2019-04-01T16:48:16.229Z,9.41
2019-04-01T16:50:45.235Z,9.48
2019-04-01T16:53:14.357Z,9.43
2019-04-01T16:55:43.762Z,9.31
2019-04-01T16:58:13.060Z,9.22
2019-04-01T17:00:42.293Z,9.31
2019-04-01T17:03:13.544Z,9.28
2019-04-01T17:05:42.323Z,9.01
2019-04-01T17:08:11.582Z,9.05
2019-04-01T17:10:42.143Z,8.93
2019-04-01T17:13:12.193Z,8.84
2019-04-01T17:15:42.180Z,8.87
2019-04-01T17:18:11.395Z,8.74
2019-04-01T17:20:40.588Z,8.63
2019-04-01T17:23:09.660Z,8.67
2019-04-01T17:25:38.745Z,8.63
2019-04-01T17:28:07.860Z,8.48
2019-04-01T17:30:36.974Z,8.39
2019-04-01T17:33:08.396Z,8.45
2019-04-01T17:35:37.177Z,8.30
2019-04-01T17:38:07.280Z,8.23
2019-04-01T17:40:36.834Z,8.31
2019-04-01T17:43:06.153Z,8.09
2019-04-01T17:45:38.274Z,8.09
2019-04-01T17:48:08.221Z,7.96
2019-04-01T17:50:37.774Z,7.95
2019-04-01T17:53:09.554Z,7.99
2019-04-01T17:55:38.703Z,7.95
2019-04-01T17:58:08.073Z,7.80
2019-04-01T18:00:41.904Z,7.72
2019-04-01T18:03:12.946Z,7.67
2019-04-01T18:05:42.167Z,7.52
2019-04-01T18:08:11.287Z,7.50
2019-04-01T18:11:15.797Z,7.50
2019-04-01T18:13:43.740Z,7.44
2019-04-01T18:16:14.966Z,7.27
2019-04-01T18:18:52.698Z,7.26
2019-04-01T18:22:10.678Z,7.17
2019-04-01T18:24:59.931Z,7.17
2019-04-01T18:27:37.723Z,7.17
2019-04-01T18:30:29.593Z,7.05
2019-04-01T18:32:59.191Z,7.05
2019-04-01T18:35:29.786Z,7.01
2019-04-01T18:38:29.167Z,7.03
2019-04-01T18:40:58.617Z,7.00
2019-04-01T18:43:28.227Z,7.00
2019-04-01T18:45:57.750Z,6.85
2019-04-01T18:48:27.078Z,6.86
2019-04-01T18:50:56.133Z,6.88
2019-04-01T18:53:33.494Z,6.84
2019-04-01T18:56:13.230Z,6.89
2019-04-01T18:58:42.969Z,6.74
2019-04-01T19:01:17.674Z,6.66
2019-04-01T19:03:46.746Z,6.62
2019-04-01T19:06:18.971Z,6.55
2019-04-01T19:08:50.508Z,6.54
2019-04-01T19:11:22.884Z,6.62
2019-04-01T19:13:52.361Z,6.63
2019-04-01T19:16:23.093Z,6.58
2019-04-01T19:18:54.751Z,6.58
2019-04-01T19:21:23.871Z,6.42
2019-04-01T19:23:52.874Z,6.48
2019-04-01T19:26:22.153Z,6.45
2019-04-01T19:28:51.272Z,6.47
2019-04-01T19:31:21.436Z,6.43
2019-04-01T19:33:53.378Z,6.64
2019-04-01T19:36:22.597Z,6.52
2019-04-01T19:39:12.486Z,6.47
2019-04-01T19:41:45.644Z,6.47
2019-04-01T19:44:14.934Z,6.41
2019-04-01T19:50:38.512Z,6.51
2019-04-01T19:53:53.267Z,6.51
2019-04-01T19:56:44.424Z,6.48
2019-04-01T19:59:17.078Z,6.46
2019-04-01T20:01:46.198Z,6.34
2019-04-01T20:04:17.030Z,6.39
2019-04-01T20:06:47.305Z,6.28
2019-04-01T20:09:18.165Z,6.34
2019-04-01T20:11:49.349Z,6.29
2019-04-01T20:14:18.535Z,6.25
2019-04-01T20:17:21.560Z,6.32
2019-04-01T20:19:56.193Z,6.29
2019-04-01T20:22:37.089Z,6.45
2019-04-01T20:25:51.664Z,6.32
2019-04-01T20:28:17.947Z,6.22
2019-04-01T20:31:37.208Z,6.16
2019-04-01T20:34:32.406Z,6.30
2019-04-01T20:37:01.469Z,6.10
2019-04-01T20:39:31.502Z,5.98
2019-04-01T20:42:26.472Z,5.99
2019-04-01T20:44:55.976Z,6.07
2019-04-01T20:47:25.319Z,6.02
2019-04-01T20:49:54.802Z,5.92
2019-04-01T20:53:19.162Z,5.86
2019-04-01T20:59:51.946Z,5.78
2019-04-01T21:02:24.843Z,5.74
2019-04-01T21:08:34.692Z,5.36
2019-04-01T21:11:05.101Z,5.12
2019-04-01T21:13:36.922Z,5.11
2019-04-01T21:16:25.548Z,4.93
2019-04-01T21:18:54.695Z,4.92
2019-04-01T21:21:23.790Z,4.88
2019-04-01T21:23:52.932Z,4.80
2019-04-01T21:26:22.058Z,4.82
2019-04-01T21:28:51.217Z,4.67
2019-04-01T21:31:20.304Z,4.67
2019-04-01T21:33:49.434Z,4.72
2019-04-01T21:36:18.641Z,4.67
2019-04-01T21:38:47.813Z,4.64
2019-04-01T21:41:16.909Z,4.57
2019-04-01T21:43:46.040Z,4.47
2019-04-01T21:46:15.190Z,4.42
2019-04-01T21:48:44.379Z,4.22
2019-04-01T21:51:13.488Z,4.07
2019-04-01T21:53:42.757Z,4.01
2019-04-01T21:56:12.081Z,4.03
2019-04-01T21:58:41.184Z,3.75
2019-04-01T22:01:10.679Z,3.74
2019-04-01T22:03:39.833Z,3.63
2019-04-01T22:06:08.957Z,3.59
2019-04-01T22:08:38.602Z,3.43
2019-04-01T22:11:07.667Z,3.38
2019-04-01T22:13:36.785Z,3.35
2019-04-01T22:16:05.881Z,3.27
2019-04-01T22:18:35.039Z,3.42
2019-04-01T22:21:04.129Z,3.45
2019-04-01T22:23:34.188Z,3.42
2019-04-01T22:26:04.110Z,3.45
2019-04-01T22:28:33.235Z,3.46
2019-04-01T22:31:02.546Z,3.58
2019-04-01T22:33:31.673Z,3.45
2019-04-01T22:36:00.759Z,3.36
2019-04-01T22:38:30.161Z,3.44
2019-04-01T22:41:00.253Z,3.55
2019-04-01T22:43:29.487Z,3.47
2019-04-01T22:45:58.611Z,3.23
2019-04-01T22:48:27.752Z,3.20
2019-04-01T22:50:57.790Z,3.04
2019-04-01T22:53:26.965Z,2.98
2019-04-01T22:55:56.347Z,2.96
2019-04-01T22:58:26.371Z,2.81
2019-04-01T23:00:55.500Z,2.84
2019-04-01T23:03:24.620Z,2.98
2019-04-01T23:05:55.682Z,2.85
2019-04-01T23:08:24.692Z,2.85
2019-04-01T23:10:53.731Z,2.86
2019-04-01T23:13:22.825Z,2.83
2019-04-01T23:15:51.943Z,2.75
2019-04-01T23:18:21.077Z,2.67
2019-04-01T23:20:50.221Z,2.61
2019-04-01T23:23:19.324Z,2.62
2019-04-01T23:25:48.477Z,2.49
2019-04-01T23:28:17.565Z,2.38
2019-04-01T23:30:46.699Z,2.13
2019-04-01T23:33:16.331Z,2.21
2019-04-01T23:35:45.880Z,2.21
2019-04-01T23:38:15.028Z,2.14
2019-04-01T23:40:44.110Z,2.28
2019-04-01T23:43:13.213Z,2.27
2019-04-01T23:45:42.317Z,2.33
2019-04-01T23:48:11.415Z,2.22
2019-04-01T23:50:40.534Z,2.15
2019-04-01T23:53:09.624Z,2.06
2019-04-01T23:55:38.683Z,2.01
2019-04-01T23:58:07.703Z,2.04
